Time;durP1;ratioP1;P1;durP2;ratioP2;P2;SDS_P1;SDS_P2;PMS_P1;PMS_P2;Temp;Humidity;BMP_temperature;BMP_pressure;BME280_temperature;BME280_humidity;BME280_pressure;Samples;Min_cycle;Max_cycle;Signal;HPM_P1;HPM_P2
2022/06/05 00:02:20;;;;;;;11.38;5.15;;;;;;;19.57;100.00;100485.03;5590529;31;34164;-73
2022/06/05 00:05:33;;;;;;;5.82;4.55;;;;;;;19.48;100.00;100489.88;5590460;31;34707;-75
2022/06/05 00:09:03;;;;;;;9.38;5.50;;;;;;;19.48;100.00;100481.00;5590830;31;34294;-74
2022/06/05 00:12:13;;;;;;;6.80;4.25;;;;;;;19.49;100.00;100488.03;5590474;31;34654;-74
2022/06/05 00:15:15;;;;;;;9.13;5.07;;;;;;;19.34;100.00;100485.66;5590615;31;34351;-74
2022/06/05 00:18:18;;;;;;;6.65;4.87;;;;;;;19.31;100.00;100486.12;5589766;31;34416;-74
2022/06/05 00:21:21;;;;;;;8.70;5.10;;;;;;;19.25;100.00;100489.69;5590453;31;34178;-74
2022/06/05 00:24:24;;;;;;;10.77;4.80;;;;;;;19.27;100.00;100497.50;5590410;31;34871;-74
2022/06/05 00:27:35;;;;;;;7.82;4.75;;;;;;;19.21;100.00;100496.56;5590222;31;34293;-74
2022/06/05 00:30:58;;;;;;;11.18;4.72;;;;;;;19.20;100.00;100494.06;5590317;31;34312;-74
2022/06/05 00:34:01;;;;;;;9.73;4.60;;;;;;;19.26;100.00;100483.25;5590608;31;34325;-74
2022/06/05 00:37:13;;;;;;;7.47;4.32;;;;;;;19.30;100.00;100483.63;5590392;31;34201;-74
2022/06/05 00:40:31;;;;;;;6.45;4.80;;;;;;;19.30;100.00;100476.38;5590243;31;34231;-74
2022/06/05 00:43:34;;;;;;;6.80;4.72;;;;;;;19.26;100.00;100475.19;5590584;31;34182;-72
2022/06/05 00:46:38;;;;;;;7.20;4.65;;;;;;;19.33;100.00;100478.63;5590045;31;34664;-74
2022/06/05 00:50:04;;;;;;;6.15;4.47;;;;;;;19.29;100.00;100480.13;5590123;31;34521;-74
2022/06/05 00:53:09;;;;;;;7.15;4.30;;;;;;;19.25;100.00;100481.63;5589175;31;34975;-74
2022/06/05 00:56:12;;;;;;;7.62;4.87;;;;;;;19.21;100.00;100468.84;5590166;31;34838;-74
2022/06/05 00:59:20;;;;;;;9.35;4.03;;;;;;;19.19;100.00;100465.53;5590169;31;34169;-74
2022/06/05 01:02:23;;;;;;;5.60;4.20;;;;;;;19.19;100.00;100454.78;5590075;31;35445;-74
2022/06/05 01:05:27;;;;;;;8.32;4.47;;;;;;;19.12;100.00;100459.41;5589269;31;34106;-74
2022/06/05 01:08:30;;;;;;;6.15;4.70;;;;;;;19.08;100.00;100467.06;5589967;31;34184;-74
2022/06/05 01:12:02;;;;;;;6.10;4.60;;;;;;;19.07;100.00;100455.50;5590056;31;34552;-75
2022/06/05 01:15:35;;;;;;;8.68;4.37;;;;;;;19.04;100.00;100450.56;5590365;31;34131;-74
2022/06/05 01:18:58;;;;;;;6.20;4.25;;;;;;;19.08;100.00;100459.81;5590247;31;34267;-74
2022/06/05 01:22:10;;;;;;;7.70;4.60;;;;;;;19.03;100.00;100467.72;5589144;31;34197;-74
2022/06/05 01:25:42;;;;;;;7.12;4.40;;;;;;;18.97;100.00;100465.94;5589824;31;34561;-73
2022/06/05 01:29:07;;;;;;;5.30;4.12;;;;;;;18.88;100.00;100464.56;5567418;31;34324;-73
2022/06/05 01:32:19;;;;;;;7.57;4.12;;;;;;;18.93;100.00;100466.59;5589632;31;34177;-73
2022/06/05 01:35:45;;;;;;;6.57;4.57;;;;;;;18.84;100.00;100476.78;5590102;31;34703;-73
2022/06/05 01:39:00;;;;;;;8.02;4.82;;;;;;;18.77;100.00;100459.09;5560346;31;34808;-73
2022/06/05 01:42:19;;;;;;;5.05;4.45;;;;;;;18.74;100.00;100467.56;5589676;31;35430;-74
2022/06/05 01:45:48;;;;;;;7.82;5.05;;;;;;;18.75;100.00;100475.41;5589021;31;32532;-74
2022/06/05 01:49:01;;;;;;;7.50;4.97;;;;;;;18.80;100.00;100475.59;5589489;31;34114;-74
2022/06/05 01:52:13;;;;;;;6.87;4.37;;;;;;;18.77;100.00;100459.09;5589738;31;34824;-74
2022/06/05 01:55:22;;;;;;;6.40;4.28;;;;;;;18.78;100.00;100466.94;5589678;31;34800;-74
2022/06/05 01:58:47;;;;;;;6.75;4.55;;;;;;;18.80;100.00;100461.31;5589491;31;34407;-74
2022/06/05 02:01:57;;;;;;;6.90;4.37;;;;;;;18.76;100.00;100462.81;5589888;31;34215;-74
2022/06/05 02:05:13;;;;;;;5.97;4.47;;;;;;;18.76;100.00;100469.00;5588496;31;34574;-74
2022/06/05 02:08:28;;;;;;;5.53;4.40;;;;;;;18.78;100.00;100458.88;5589494;31;34263;-74
2022/06/05 02:11:32;;;;;;;8.57;4.87;;;;;;;18.87;100.00;100467.47;5589412;31;34094;-75
2022/06/05 02:14:36;;;;;;;6.03;4.18;;;;;;;18.72;100.00;100470.50;5589753;31;34242;-74
2022/06/05 02:17:39;;;;;;;7.50;5.10;;;;;;;18.72;100.00;100458.91;5588359;31;32926;-75
2022/06/05 02:20:42;;;;;;;7.55;4.85;;;;;;;18.63;100.00;100474.50;5589682;31;34163;-75
2022/06/05 02:23:46;;;;;;;7.72;5.03;;;;;;;18.60;100.00;100467.69;5589300;31;34934;-75
2022/06/05 02:26:48;;;;;;;6.18;4.53;;;;;;;18.58;100.00;100469.78;5589296;31;34943;-75
2022/06/05 02:29:52;;;;;;;6.00;4.62;;;;;;;18.65;100.00;100465.16;5589306;31;34255;-75
2022/06/05 02:33:17;;;;;;;7.12;4.75;;;;;;;18.76;100.00;100465.50;5589118;31;34136;-74
2022/06/05 02:36:32;;;;;;;7.03;4.93;;;;;;;18.71;100.00;100478.75;5589173;31;34188;-75
2022/06/05 02:40:14;;;;;;;13.90;4.90;;;;;;;18.71;100.00;100479.59;5589443;31;34195;-74
2022/06/05 02:43:25;;;;;;;8.15;4.70;;;;;;;18.62;100.00;100470.97;5589044;31;35131;-75
2022/06/05 02:46:32;;;;;;;6.82;4.70;;;;;;;18.80;100.00;100475.59;5588906;31;34190;-75
2022/06/05 02:49:46;;;;;;;6.95;4.97;;;;;;;18.66;100.00;100474.03;5588837;31;34694;-75
2022/06/05 02:52:51;;;;;;;5.90;4.62;;;;;;;18.74;100.00;100472.94;5588935;31;34837;-75
2022/06/05 02:55:54;;;;;;;6.37;4.60;;;;;;;18.82;100.00;100480.75;5588968;31;34219;-75
2022/06/05 02:58:59;;;;;;;5.82;4.75;;;;;;;18.75;100.00;100479.97;5588960;31;34172;-75
2022/06/05 03:05:24;;;;;;;7.35;5.00;;;;;;;18.36;100.00;100468.44;5588745;31;34924;-75
2022/06/05 03:08:27;;;;;;;9.32;4.95;;;;;;;18.30;100.00;100469.28;5588688;31;34808;-75
2022/06/05 03:11:30;;;;;;;7.55;4.95;;;;;;;18.36;100.00;100472.97;5588608;31;35391;-75
2022/06/05 03:14:33;;;;;;;7.20;5.25;;;;;;;18.34;100.00;100470.53;5588607;31;34225;-76
2022/06/05 03:17:36;;;;;;;6.57;5.25;;;;;;;18.38;100.00;100469.06;5590328;31;34324;-75
2022/06/05 03:20:39;;;;;;;7.45;5.07;;;;;;;18.48;100.00;100472.09;5591043;31;34219;-75
2022/06/05 03:23:42;;;;;;;8.95;5.60;;;;;;;18.53;100.00;100479.50;5591041;31;34529;-75
2022/06/05 03:26:45;;;;;;;6.15;4.75;;;;;;;18.58;100.00;100491.28;5591000;31;34267;-75
2022/06/05 03:29:48;;;;;;;5.62;4.37;;;;;;;18.67;100.00;100498.03;5590935;31;34505;-75
2022/06/05 03:32:51;;;;;;;8.55;5.28;;;;;;;18.82;100.00;100499.56;5589680;31;34249;-75
2022/06/05 03:35:53;;;;;;;7.50;4.95;;;;;;;18.88;100.00;100510.25;5591187;31;34319;-75
2022/06/05 03:38:56;;;;;;;6.22;4.57;;;;;;;18.79;100.00;100506.19;5590868;31;34150;-75
2022/06/05 03:41:59;;;;;;;6.05;4.80;;;;;;;18.83;100.00;100514.66;5591088;31;34279;-76
2022/06/05 03:45:02;;;;;;;7.60;4.70;;;;;;;19.04;100.00;100516.97;5591044;31;34170;-75
2022/06/05 03:48:06;;;;;;;6.20;4.93;;;;;;;19.15;100.00;100527.00;5590678;31;34153;-75
2022/06/05 03:51:11;;;;;;;6.43;4.82;;;;;;;19.03;100.00;100528.75;5590650;31;34214;-75
2022/06/05 03:54:14;;;;;;;5.93;4.80;;;;;;;19.25;100.00;100530.03;5591005;31;34171;-75
2022/06/05 03:57:17;;;;;;;8.32;4.82;;;;;;;19.53;100.00;100540.34;5590993;31;34922;-75
2022/06/05 04:00:21;;;;;;;7.53;5.53;;;;;;;19.29;100.00;100544.69;5590680;31;34332;-75
2022/06/05 04:03:24;;;;;;;7.05;5.12;;;;;;;19.19;100.00;100555.09;5590596;31;34282;-75
2022/06/05 04:06:29;;;;;;;7.57;4.80;;;;;;;19.49;100.00;100555.28;5590460;31;34229;-75
2022/06/05 04:09:32;;;;;;;7.20;5.22;;;;;;;19.54;100.00;100560.84;5589779;31;34233;-76
2022/06/05 04:12:35;;;;;;;8.38;5.43;;;;;;;19.44;100.00;100561.34;5590451;31;34123;-74
2022/06/05 04:15:39;;;;;;;8.85;4.97;;;;;;;19.37;100.00;100573.97;5590533;31;34820;-75
2022/06/05 04:18:42;;;;;;;8.25;5.70;;;;;;;19.37;100.00;100567.78;5590390;31;34123;-75
2022/06/05 04:21:47;;;;;;;7.65;5.50;;;;;;;19.44;100.00;100573.97;5590649;31;34155;-75
2022/06/05 04:24:50;;;;;;;7.32;5.47;;;;;;;19.41;100.00;100579.78;5590301;31;34182;-75
2022/06/05 04:27:52;;;;;;;8.90;6.00;;;;;;;19.51;100.00;100577.41;5590088;31;34970;-74
2022/06/05 04:30:55;;;;;;;9.05;5.60;;;;;;;19.58;100.00;100583.56;5590291;31;34786;-75
2022/06/05 04:34:01;;;;;;;9.68;5.72;;;;;;;19.63;100.00;100583.72;5590187;31;34753;-76
2022/06/05 04:37:04;;;;;;;7.43;6.10;;;;;;;19.71;100.00;100583.44;5590226;31;34320;-74
2022/06/05 04:40:08;;;;;;;8.38;5.62;;;;;;;19.62;100.00;100582.06;5590224;31;34845;-75
2022/06/05 04:43:10;;;;;;;9.00;6.40;;;;;;;19.74;100.00;100588.38;5590316;31;34813;-75
2022/06/05 04:46:13;;;;;;;9.07;6.50;;;;;;;19.92;100.00;100580.31;5590455;31;34790;-75
2022/06/05 04:49:16;;;;;;;12.30;6.18;;;;;;;19.95;100.00;100587.94;5589251;31;34815;-75
2022/06/05 04:52:19;;;;;;;12.60;7.07;;;;;;;20.12;100.00;100593.56;5590199;31;34531;-75
2022/06/05 04:55:21;;;;;;;10.60;6.70;;;;;;;20.04;100.00;100604.62;5589059;31;34403;-75
2022/06/05 04:58:24;;;;;;;11.12;6.57;;;;;;;20.24;100.00;100604.38;5589136;31;33981;-75
2022/06/05 05:01:30;;;;;;;10.45;6.85;;;;;;;20.45;100.00;100603.97;5590365;31;34099;-75
2022/06/05 05:04:32;;;;;;;11.18;6.82;;;;;;;20.52;100.00;100606.59;5589295;31;34641;-75
2022/06/05 05:07:35;;;;;;;13.15;7.57;;;;;;;20.73;100.00;100608.78;5589983;31;34171;-75
2022/06/05 05:10:38;;;;;;;9.80;6.93;;;;;;;20.54;100.00;100623.34;5590186;31;34821;-74
2022/06/05 05:13:41;;;;;;;11.32;7.22;;;;;;;20.61;100.00;100634.88;5589849;31;34878;-74
2022/06/05 05:16:44;;;;;;;12.48;7.78;;;;;;;20.64;100.00;100639.78;5589918;31;34782;-75
2022/06/05 05:19:47;;;;;;;12.77;7.87;;;;;;;20.75;100.00;100639.03;5590254;31;34667;-75
2022/06/05 05:22:50;;;;;;;13.23;8.43;;;;;;;20.68;100.00;100640.97;5589938;31;34087;-74
2022/06/05 05:25:53;;;;;;;16.02;8.48;;;;;;;20.41;100.00;100645.91;5589760;31;34165;-75
2022/06/05 05:28:57;;;;;;;12.35;8.40;;;;;;;20.22;100.00;100653.13;5590061;31;34152;-75
2022/06/05 05:32:00;;;;;;;15.75;9.07;;;;;;;20.27;100.00;100649.75;5589936;31;34123;-75
2022/06/05 05:35:04;;;;;;;13.55;8.60;;;;;;;20.39;100.00;100648.81;5589651;31;34333;-75
2022/06/05 05:38:07;;;;;;;13.65;8.68;;;;;;;20.45;100.00;100657.03;5589926;31;34544;-74
2022/06/05 05:44:41;;;;;;;7.18;4.43;;;;;;;20.56;100.00;100656.28;5589472;31;34382;-76
2022/06/05 05:47:46;;;;;;;7.43;4.60;;;;;;;20.80;100.00;100656.19;5589982;31;34960;-75
2022/06/05 05:50:49;;;;;;;8.35;4.05;;;;;;;20.97;100.00;100650.94;5589358;31;34259;-72
2022/06/05 05:53:51;;;;;;;5.93;4.45;;;;;;;21.04;100.00;100650.87;5590030;31;34376;-73
2022/06/05 05:56:54;;;;;;;8.85;4.70;;;;;;;21.00;100.00;100649.69;5589586;31;34210;-74
2022/06/05 05:59:56;;;;;;;6.85;4.50;;;;;;;20.98;100.00;100649.91;5590002;31;34333;-72
2022/06/05 06:02:59;;;;;;;6.00;4.07;;;;;;;21.06;100.00;100637.97;5589573;31;34136;-75
2022/06/05 06:06:09;;;;;;;5.97;4.45;;;;;;;21.24;100.00;100637.94;5589631;31;34112;-75
2022/06/05 06:09:12;;;;;;;5.75;4.32;;;;;;;21.35;100.00;100636.34;5589403;31;34190;-75
2022/06/05 06:12:15;;;;;;;7.22;4.75;;;;;;;21.34;98.33;100648.19;5589552;31;34832;-75
2022/06/05 06:15:18;;;;;;;6.43;4.40;;;;;;;21.53;97.61;100645.16;5589007;31;34297;-74
2022/06/05 06:18:21;;;;;;;6.37;4.37;;;;;;;21.64;96.59;100641.63;5589622;31;34886;-75
2022/06/05 06:21:24;;;;;;;6.82;3.90;;;;;;;21.92;95.62;100638.25;5589636;31;34215;-73
2022/06/05 06:24:34;;;;;;;5.32;3.83;;;;;;;22.12;92.04;100632.50;5589375;31;34207;-72
2022/06/05 06:27:36;;;;;;;6.25;4.00;;;;;;;22.13;91.50;100631.41;5589081;31;34302;-74
2022/06/05 06:30:45;;;;;;;4.75;3.92;;;;;;;21.98;90.23;100625.69;5589249;31;34207;-73
2022/06/05 06:33:49;;;;;;;6.22;4.05;;;;;;;22.13;87.53;100634.13;5589416;31;34712;-74
2022/06/05 06:36:52;;;;;;;7.28;4.30;;;;;;;22.45;85.40;100629.97;5589542;31;34242;-72
2022/06/05 06:39:55;;;;;;;6.05;4.28;;;;;;;22.38;83.43;100631.13;5588700;31;35458;-74
2022/06/05 06:42:58;;;;;;;7.10;4.50;;;;;;;22.44;82.95;100631.00;5588971;31;34930;-75
2022/06/05 06:46:01;;;;;;;6.93;4.75;;;;;;;22.59;83.83;100627.81;5589301;31;34724;-74
2022/06/05 06:49:04;;;;;;;5.18;4.40;;;;;;;22.56;82.58;100625.56;5588722;31;34885;-70
2022/06/05 06:52:07;;;;;;;5.60;3.83;;;;;;;22.70;82.16;100626.97;5587639;31;34378;-75
2022/06/05 06:55:16;;;;;;;5.57;3.83;;;;;;;22.96;80.56;100626.38;5589233;31;34224;-73
2022/06/05 06:58:18;;;;;;;6.33;3.90;;;;;;;23.01;81.29;100614.81;5588785;31;34878;-74
2022/06/05 07:01:22;;;;;;;6.12;4.12;;;;;;;23.35;79.73;100611.06;5588800;31;34369;-73
2022/06/05 07:04:25;;;;;;;6.05;4.18;;;;;;;23.11;78.20;100603.34;5588023;31;34172;-71
2022/06/05 07:07:27;;;;;;;6.18;3.85;;;;;;;22.69;80.01;100609.06;5588281;31;34290;-75
2022/06/05 07:10:30;;;;;;;4.37;3.90;;;;;;;22.59;81.46;100611.56;5588686;31;34792;-75
2022/06/05 07:13:34;;;;;;;5.37;3.90;;;;;;;22.64;81.85;100605.44;5588650;31;34128;-74
2022/06/05 07:16:37;;;;;;;5.12;3.42;;;;;;;23.33;79.24;100594.25;5588512;31;34941;-77
2022/06/05 07:19:41;;;;;;;4.95;3.95;;;;;;;23.65;76.50;100605.34;5588418;31;34295;-74
2022/06/05 07:22:43;;;;;;;5.97;3.87;;;;;;;23.81;76.26;100611.81;5588301;31;34308;-72
2022/06/05 07:25:49;;;;;;;4.60;3.83;;;;;;;24.01;74.70;100612.09;5588276;31;34122;-76
2022/06/05 07:28:53;;;;;;;5.97;3.72;;;;;;;23.70;75.19;100620.88;5588658;31;34665;-76
2022/06/05 07:31:56;;;;;;;4.87;3.45;;;;;;;23.66;76.70;100612.41;5588265;31;35587;-75
2022/06/05 07:34:59;;;;;;;3.95;3.05;;;;;;;23.74;75.38;100616.59;5588317;31;34456;-75
2022/06/05 07:38:02;;;;;;;4.00;3.12;;;;;;;23.78;76.05;100618.53;5588159;31;34846;-71
2022/06/05 07:41:21;;;;;;;5.95;3.60;;;;;;;23.93;75.14;100617.94;5588432;31;34072;-77
2022/06/05 07:44:25;;;;;;;4.15;3.42;;;;;;;23.93;75.17;100607.09;5587728;31;34812;-75
2022/06/05 07:47:28;;;;;;;3.37;3.08;;;;;;;24.25;73.37;100618.94;5587859;31;34173;-75
2022/06/05 07:50:31;;;;;;;5.87;3.42;;;;;;;24.82;71.15;100623.97;5587697;31;34309;-73
2022/06/05 07:56:58;;;;;;;5.47;3.10;;;;;;;25.42;68.54;100631.88;5587656;31;34866;-74
2022/06/05 08:00:01;;;;;;;6.53;3.70;;;;;;;25.31;68.67;100623.91;5588059;31;34658;-74
2022/06/05 08:03:03;;;;;;;3.10;2.80;;;;;;;25.05;68.70;100636.44;5589106;31;35002;-73
2022/06/05 08:06:08;;;;;;;4.37;3.10;;;;;;;24.54;69.81;100624.19;5590529;31;34646;-74
2022/06/05 08:09:11;;;;;;;4.47;3.10;;;;;;;24.60;70.59;100636.72;5590461;31;34530;-75
2022/06/05 08:12:16;;;;;;;4.70;2.83;;;;;;;24.72;70.09;100637.41;5576374;31;32742;-76
2022/06/05 08:15:19;;;;;;;4.32;2.60;;;;;;;24.87;69.55;100636.81;5590718;31;34087;-75
2022/06/05 08:18:22;;;;;;;4.60;3.00;;;;;;;24.80;69.48;100641.56;5590314;31;34919;-75
2022/06/05 08:21:26;;;;;;;3.42;2.78;;;;;;;25.52;68.08;100636.56;5576352;31;32851;-76
2022/06/05 08:24:29;;;;;;;4.40;2.70;;;;;;;26.04;65.20;100642.16;5590225;31;34820;-76
2022/06/05 08:27:35;;;;;;;3.50;3.08;;;;;;;26.90;61.69;100628.94;5589492;31;34404;-75
2022/06/05 08:30:38;;;;;;;5.37;2.90;;;;;;;27.00;61.24;100641.75;5589500;31;32925;-73
2022/06/05 08:33:41;;;;;;;3.83;3.10;;;;;;;26.35;62.74;100634.97;5589272;31;33656;-76
2022/06/05 08:36:44;;;;;;;3.78;3.03;;;;;;;26.57;62.96;100634.78;5590002;31;34172;-75
2022/06/05 08:43:20;;;;;;;4.68;3.35;;;;;;;26.89;61.55;100646.34;5589979;31;34896;-76
2022/06/05 08:46:29;;;;;;;3.65;3.20;;;;;;;26.61;61.41;100646.78;5590359;31;34301;-74
2022/06/05 08:49:47;;;;;;;4.45;3.20;;;;;;;26.19;62.84;100649.56;5589857;31;35496;-77
2022/06/05 08:53:03;;;;;;;5.25;3.53;;;;;;;26.05;64.12;100651.09;5589967;31;34325;-76
2022/06/05 08:56:11;;;;;;;4.87;3.80;;;;;;;26.08;62.69;100642.44;5589834;31;34214;-76
2022/06/05 08:59:53;;;;;;;4.68;3.90;;;;;;;25.63;64.66;100651.91;5590193;31;34901;-76
2022/06/05 09:03:24;;;;;;;6.45;3.45;;;;;;;25.75;64.31;100640.87;5589846;31;34909;-75
2022/06/05 09:06:38;;;;;;;4.47;3.65;;;;;;;26.11;64.17;100631.84;5589794;31;34174;-75
2022/06/05 09:09:49;;;;;;;4.55;3.22;;;;;;;27.43;58.16;100634.97;5589687;31;35064;-72
2022/06/05 09:13:00;;;;;;;3.53;3.10;;;;;;;28.50;53.62;100633.69;5589658;31;34605;-76
2022/06/05 09:16:11;;;;;;;5.47;3.40;;;;;;;28.08;55.61;100631.34;5589038;31;35505;-75
2022/06/05 09:19:20;;;;;;;4.03;3.10;;;;;;;27.83;55.44;100629.50;5589655;31;34857;-74
2022/06/05 09:22:49;;;;;;;5.10;3.53;;;;;;;27.71;56.24;100628.16;5589562;31;34987;-75
2022/06/05 09:25:57;;;;;;;4.87;3.30;;;;;;;27.11;58.07;100621.59;5589381;31;34189;-73
2022/06/05 09:29:25;;;;;;;4.90;3.50;;;;;;;26.61;59.60;100635.88;5589094;31;34185;-75
2022/06/05 09:32:40;;;;;;;4.18;3.53;;;;;;;26.21;60.70;100631.06;5588921;31;32678;-74
2022/06/05 09:35:50;;;;;;;4.95;3.75;;;;;;;26.18;61.17;100637.88;5589673;31;35563;-72
2022/06/05 09:39:16;;;;;;;5.32;3.70;;;;;;;26.37;61.45;100632.81;5589490;31;34349;-73
2022/06/05 09:42:29;;;;;;;5.57;3.55;;;;;;;26.42;61.21;100640.19;5589625;31;35107;-74
2022/06/05 09:46:08;;;;;;;4.85;3.53;;;;;;;25.79;61.31;100648.22;5589803;31;34936;-75
2022/06/05 09:49:31;;;;;;;5.70;3.33;;;;;;;26.00;61.67;100646.44;5589568;31;34678;-75
2022/06/05 09:52:34;;;;;;;5.30;3.15;;;;;;;25.56;61.44;100650.50;5589717;31;34159;-75
2022/06/05 09:56:25;;;;;;;5.15;3.25;;;;;;;25.59;62.06;100650.81;5589533;31;34215;-73
2022/06/05 09:59:40;;;;;;;4.40;2.70;;;;;;;25.76;59.47;100653.34;5583383;31;34749;-74
2022/06/05 10:02:49;;;;;;;4.57;3.17;;;;;;;26.19;57.94;100658.50;5589236;31;34239;-76
2022/06/05 10:06:24;;;;;;;3.42;2.50;;;;;;;26.58;57.73;100661.72;5589702;31;35014;-73
2022/06/05 10:09:28;;;;;;;5.40;2.55;;;;;;;26.35;54.15;100663.00;5589406;31;34949;-75
2022/06/05 10:12:39;;;;;;;2.10;1.90;;;;;;;27.23;52.66;100655.66;5589727;31;34129;-73
2022/06/05 10:16:13;;;;;;;3.05;2.35;;;;;;;29.16;46.27;100668.81;5589386;31;34594;-71
2022/06/05 10:19:34;;;;;;;2.40;2.05;;;;;;;29.99;43.09;100661.31;5588658;31;32843;-74
2022/06/05 10:22:39;;;;;;;2.35;2.05;;;;;;;27.97;46.18;100660.56;5589447;31;34931;-75
2022/06/05 10:25:46;;;;;;;3.28;1.98;;;;;;;28.42;45.91;100664.25;5588192;31;33643;-76
2022/06/05 10:28:52;;;;;;;4.10;2.20;;;;;;;29.35;43.69;100662.41;5589270;31;34548;-75
2022/06/05 10:32:05;;;;;;;3.62;2.33;;;;;;;29.48;42.70;100662.88;5589260;31;34237;-76
2022/06/05 10:35:16;;;;;;;3.28;2.22;;;;;;;31.25;40.00;100652.59;5589204;31;34285;-75
2022/06/05 10:38:55;;;;;;;2.28;2.08;;;;;;;33.85;34.04;100651.28;5589133;31;34568;-73
2022/06/05 10:41:58;;;;;;;2.70;1.70;;;;;;;32.39;36.56;100643.72;5587356;31;34136;-71
2022/06/05 10:45:28;;;;;;;1.83;1.67;;;;;;;31.71;36.60;100642.50;5588945;31;34305;-74
2022/06/05 10:48:34;;;;;;;2.25;1.45;;;;;;;33.33;33.92;100644.63;5588839;31;34747;-71
2022/06/05 10:51:52;;;;;;;1.60;1.50;;;;;;;34.77;29.71;100638.50;5588896;31;34662;-73
2022/06/05 10:55:06;;;;;;;1.70;1.50;;;;;;;37.14;27.40;100634.72;5588816;31;34185;-74
2022/06/05 10:58:27;;;;;;;4.00;2.10;;;;;;;36.85;28.00;100624.53;5588928;31;34645;-75
2022/06/05 11:01:35;;;;;;;2.55;1.70;;;;;;;37.01;27.62;100627.50;5589006;31;34149;-72
2022/06/05 11:04:45;;;;;;;2.37;1.70;;;;;;;37.41;26.16;100616.75;5588688;31;34247;-74
2022/06/05 11:07:59;;;;;;;3.70;1.70;;;;;;;36.59;27.78;100608.12;5588790;31;34625;-74
2022/06/05 11:14:53;;;;;;;2.95;1.80;;;;;;;37.10;27.00;100605.31;5588538;31;34217;-73
2022/06/05 11:18:13;;;;;;;3.22;1.67;;;;;;;37.10;27.10;100600.59;5588391;31;34616;-74
2022/06/05 11:21:18;;;;;;;2.35;1.60;;;;;;;38.54;25.82;100590.06;5588453;31;34263;-74
2022/06/05 11:24:30;;;;;;;3.28;1.73;;;;;;;38.89;25.64;100595.88;5587688;31;33114;-72
2022/06/05 11:27:32;;;;;;;;;;;;;;;38.62;26.47;100596.63;5588342;31;34954;-71
2022/06/05 11:30:47;;;;;;;3.33;1.70;;;;;;;36.35;28.42;100591.41;5587349;31;34453;-72
2022/06/05 11:33:52;;;;;;;1.95;1.75;;;;;;;35.87;28.58;100583.53;5588091;31;34863;-71
2022/06/05 11:37:16;;;;;;;3.00;1.90;;;;;;;35.64;29.53;100588.44;5588345;31;35363;-73
2022/06/05 11:40:33;;;;;;;1.80;1.70;;;;;;;36.41;28.63;100584.50;5590906;31;34686;-72
2022/06/05 11:43:39;;;;;;;2.47;1.80;;;;;;;35.57;29.96;100570.78;5590842;31;34879;-70
2022/06/05 11:47:06;;;;;;;2.65;2.05;;;;;;;36.75;29.34;100579.91;5590750;31;34259;-73
2022/06/05 11:50:33;;;;;;;2.50;1.70;;;;;;;38.17;26.58;100582.94;5590492;31;34560;-69
2022/06/05 11:53:55;;;;;;;2.20;2.00;;;;;;;35.01;29.83;100575.41;5590852;31;34244;-72
2022/06/05 11:57:06;;;;;;;3.20;1.92;;;;;;;32.58;34.58;100573.00;5590597;31;34425;-73
2022/06/05 12:00:17;;;;;;;3.28;2.10;;;;;;;33.99;32.24;100566.66;5590794;31;34649;-73
2022/06/05 12:03:31;;;;;;;3.20;1.92;;;;;;;37.49;27.38;100566.00;5590451;31;34594;-73
2022/06/05 12:06:54;;;;;;;3.25;2.20;;;;;;;38.34;26.00;100556.94;5590492;31;34558;-74
2022/06/05 12:10:08;;;;;;;2.60;2.12;;;;;;;38.59;25.92;100541.87;5590346;31;35080;-70
2022/06/05 12:13:23;;;;;;;2.33;2.00;;;;;;;38.20;25.00;100548.97;5590448;31;34791;-74
2022/06/05 12:16:50;;;;;;;4.22;2.53;;;;;;;38.70;24.73;100546.56;5590513;31;34522;-73
2022/06/05 12:20:04;;;;;;;2.40;1.80;;;;;;;38.28;25.22;100539.75;5590709;31;34153;-71
2022/06/05 12:23:26;;;;;;;2.08;1.85;;;;;;;38.31;25.22;100527.94;5589808;31;33551;-72
2022/06/05 12:26:51;;;;;;;2.25;1.87;;;;;;;37.33;25.88;100520.75;5589734;31;33134;-74
2022/06/05 12:30:06;;;;;;;1.98;1.77;;;;;;;37.84;25.50;100519.34;5590524;31;34858;-73
2022/06/05 12:33:20;;;;;;;2.60;1.62;;;;;;;37.60;26.18;100511.84;5590176;31;34918;-73
2022/06/05 12:36:52;;;;;;;2.97;1.92;;;;;;;36.11;27.57;100505.56;5590275;31;34250;-73
2022/06/05 12:39:57;;;;;;;3.67;1.95;;;;;;;38.63;25.36;100498.44;5582417;31;34060;-72
2022/06/05 12:43:09;;;;;;;1.60;1.50;;;;;;;39.97;22.61;100493.63;5590114;31;34905;-73
2022/06/05 12:46:38;;;;;;;3.15;1.70;;;;;;;41.50;21.44;100500.28;5590145;31;34644;-74
2022/06/05 12:49:56;;;;;;;1.60;1.30;;;;;;;41.99;20.73;100486.31;5589735;31;34325;-74
2022/06/05 12:53:02;;;;;;;;;;;;;;;42.59;20.04;100485.53;5590301;31;34370;-74
2022/06/05 12:56:43;;;;;;;2.55;1.60;;;;;;;42.58;19.55;100483.91;5590066;31;34545;-73
2022/06/05 12:59:57;;;;;;;2.20;1.80;;;;;;;42.71;19.64;100482.47;5590053;31;34173;-72
2022/06/05 13:03:10;;;;;;;2.62;1.60;;;;;;;42.08;19.43;100484.06;5576130;31;33091;-72
2022/06/05 13:06:22;;;;;;;1.65;1.50;;;;;;;42.68;19.55;100477.69;5590042;31;34263;-72
2022/06/05 13:09:41;;;;;;;1.75;1.45;;;;;;;41.50;20.91;100466.06;5589234;31;33565;-70
2022/06/05 13:12:55;;;;;;;1.75;1.50;;;;;;;36.15;26.14;100456.81;5589769;31;34157;-72
2022/06/05 13:16:04;;;;;;;1.48;1.30;;;;;;;34.97;28.17;100466.09;5589839;31;35588;-73
2022/06/05 13:19:23;;;;;;;2.95;1.50;;;;;;;34.75;28.15;100451.41;5589916;31;34876;-70
2022/06/05 13:22:53;;;;;;;1.70;1.40;;;;;;;34.37;29.10;100453.97;5589825;31;34402;-73
2022/06/05 13:26:39;;;;;;;2.55;1.80;;;;;;;32.09;33.42;100455.72;5589815;31;34427;-71
2022/06/05 13:30:08;;;;;;;1.80;1.70;;;;;;;31.12;35.95;100451.38;5509947;32;34140;-70
2022/06/05 13:33:24;;;;;;;1.70;1.60;;;;;;;31.00;34.53;100445.53;5509212;31;34241;-71
2022/06/05 13:36:29;;;;;;;3.03;1.85;;;;;;;30.67;36.57;100447.47;5589838;31;34641;-71
2022/06/05 13:39:41;;;;;;;2.20;1.58;;;;;;;30.67;36.66;100427.50;5589556;31;34797;-73
2022/06/05 13:42:50;;;;;;;1.83;1.60;;;;;;;31.30;34.68;100434.03;5589665;31;34647;-73
2022/06/05 13:46:05;;;;;;;2.70;1.70;;;;;;;32.23;32.71;100434.56;5588977;31;34196;-74
2022/06/05 13:49:35;;;;;;;2.03;1.70;;;;;;;35.24;28.71;100424.34;5589018;31;33535;-73
2022/06/05 13:52:49;;;;;;;2.35;1.73;;;;;;;35.44;27.75;100426.34;5589452;31;34154;-73
2022/06/05 13:56:11;;;;;;;3.92;1.85;;;;;;;37.50;24.76;100418.16;5589329;31;34247;-72
2022/06/05 13:59:31;;;;;;;3.62;1.87;;;;;;;36.64;26.44;100416.41;5588283;31;33018;-74
2022/06/05 14:02:40;;;;;;;1.87;1.70;;;;;;;37.03;25.93;100414.19;5588779;31;34544;-73
2022/06/05 14:05:58;;;;;;;1.70;1.60;;;;;;;35.09;27.67;100406.37;5589976;31;34112;-71
2022/06/05 14:09:05;;;;;;;2.20;1.80;;;;;;;37.94;24.20;100402.53;5589707;31;35538;-74
2022/06/05 14:12:23;;;;;;;3.05;1.65;;;;;;;39.90;22.57;100412.06;5589659;31;34908;-72
2022/06/05 14:15:40;;;;;;;2.25;1.60;;;;;;;40.21;21.75;100394.50;5589291;31;34300;-74
2022/06/05 14:18:58;;;;;;;2.65;1.70;;;;;;;41.01;21.23;100399.97;5589723;31;34814;-72
2022/06/05 14:22:06;;;;;;;2.07;1.70;;;;;;;38.03;24.62;100392.16;5589398;31;34215;-72
2022/06/05 14:25:19;;;;;;;2.28;1.60;;;;;;;35.71;26.84;100392.78;5589135;31;34371;-73
2022/06/05 14:28:25;;;;;;;3.25;1.95;;;;;;;33.15;31.96;100382.50;5588664;31;32725;-73
2022/06/05 14:31:28;;;;;;;3.25;1.80;;;;;;;32.59;32.62;100387.81;5589077;31;34530;-73
2022/06/05 14:34:37;;;;;;;2.53;1.92;;;;;;;35.09;28.54;100378.81;5589007;31;34861;-73
2022/06/05 14:37:57;;;;;;;2.00;1.67;;;;;;;36.08;27.12;100390.22;5588175;31;33657;-73
2022/06/05 14:41:13;;;;;;;2.85;2.10;;;;;;;35.14;27.88;100378.63;5588848;31;34133;-73
2022/06/05 14:44:22;;;;;;;2.55;2.00;;;;;;;32.11;33.13;100379.37;5588437;31;34940;-71
2022/06/05 14:47:51;;;;;;;3.03;2.00;;;;;;;34.48;29.08;100372.63;5588320;31;35524;-74
2022/06/05 14:51:00;;;;;;;2.08;1.80;;;;;;;37.80;25.18;100357.81;5587804;31;33905;-74
2022/06/05 14:54:12;;;;;;;;;;;;;;;38.66;24.29;100365.41;5588847;31;34269;-73
2022/06/05 15:01:02;;;;;;;2.33;1.80;;;;;;;38.36;24.53;100350.31;5588632;31;34342;-74
2022/06/05 15:04:12;;;;;;;2.30;1.85;;;;;;;40.38;21.56;100343.97;5588167;31;34115;-72